Time;durP1;ratioP1;P1;durP2;ratioP2;P2;SDS_P1;SDS_P2;PMS_P1;PMS_P2;Temp;Humidity;BMP_temperature;BMP_pressure;BME280_temperature;BME280_humidity;BME280_pressure;Samples;Min_cycle;Max_cycle;Signal;HPM_P1;HPM_P2
2022/11/21 00:01:01;;;;;;;0.20;0.20;;;4.60;1.00;;;;;;5060177;28;20862;-71
2022/11/21 00:03:27;;;;;;;0.10;0.10;;;4.60;1.00;;;;;;5063462;28;20511;-71
2022/11/21 00:05:56;;;;;;;0.20;0.20;;;4.60;99.90;;;;;;5060195;28;20460;-70
2022/11/21 00:08:24;;;;;;;0.20;0.20;;;4.50;1.00;;;;;;5059489;28;20924;-70
2022/11/21 00:10:58;;;;;;;0.10;0.10;;;4.50;38.00;;;;;;5064993;28;20423;-71
2022/11/21 00:13:27;;;;;;;0.10;0.10;;;4.40;99.90;;;;;;5057404;28;20959;-71
2022/11/21 00:15:54;;;;;;;3.20;0.20;;;4.50;99.90;;;;;;5067305;28;20522;-71
2022/11/21 00:18:23;;;;;;;0.40;0.40;;;4.50;99.90;;;;;;5064540;28;20821;-71
2022/11/21 00:20:49;;;;;;;0.10;0.10;;;4.40;99.90;;;;;;5070134;28;20479;-70
2022/11/21 00:23:16;;;;;;;0.20;0.20;;;4.30;99.90;;;;;;5065576;28;20918;-71
2022/11/21 00:25:43;;;;;;;2.08;0.28;;;4.30;99.90;;;;;;5067269;28;21182;-71
2022/11/21 00:28:10;;;;;;;0.35;0.35;;;4.30;99.90;;;;;;5069074;28;20506;-70
2022/11/21 00:30:39;;;;;;;0.20;0.20;;;4.20;99.90;;;;;;5067485;28;20438;-70
2022/11/21 00:33:06;;;;;;;0.30;0.30;;;4.30;99.90;;;;;;5065503;28;20435;-70
2022/11/21 00:35:33;;;;;;;0.57;0.20;;;4.30;1.00;;;;;;5066583;28;20940;-70
2022/11/21 00:38:00;;;;;;;0.25;0.25;;;4.30;1.00;;;;;;5068225;28;20424;-71
2022/11/21 00:40:26;;;;;;;0.30;0.15;;;4.30;1.00;;;;;;5066448;28;20925;-70
2022/11/21 00:42:53;;;;;;;0.30;0.30;;;4.20;1.00;;;;;;5060001;28;20511;-70
2022/11/21 00:45:20;;;;;;;0.27;0.27;;;4.20;1.00;;;;;;5066341;28;20431;-70
2022/11/21 00:47:50;;;;;;;0.20;0.20;;;4.20;1.00;;;;;;5062905;28;20520;-70
2022/11/21 00:50:17;;;;;;;0.40;0.40;;;4.10;1.00;;;;;;5066069;28;20453;-70
2022/11/21 00:52:43;;;;;;;0.80;0.40;;;4.10;1.00;;;;;;5066697;28;20443;-70
2022/11/21 00:55:10;;;;;;;0.25;0.25;;;4.10;1.00;;;;;;5069736;28;20430;-70
2022/11/21 00:57:37;;;;;;;0.30;0.30;;;4.10;1.00;;;;;;5065027;28;20443;-70
2022/11/21 01:00:06;;;;;;;0.10;0.10;;;4.00;1.00;;;;;;5067626;28;20513;-70
2022/11/21 01:02:32;;;;;;;0.50;0.20;;;3.90;1.00;;;;;;5060076;28;20423;-70
2022/11/21 01:04:59;;;;;;;0.33;0.33;;;3.80;1.00;;;;;;5066752;28;20419;-70
2022/11/21 01:07:29;;;;;;;0.32;0.32;;;3.80;1.00;;;;;;5057134;28;20981;-70
2022/11/21 01:09:58;;;;;;;4.50;0.40;;;3.80;1.00;;;;;;5062376;28;20463;-70
2022/11/21 01:12:25;;;;;;;0.20;0.20;;;3.80;1.00;;;;;;5062655;28;20427;-70
2022/11/21 01:14:52;;;;;;;0.20;0.20;;;3.80;1.00;;;;;;5058231;28;20516;-70
2022/11/21 01:17:19;;;;;;;0.40;0.40;;;3.80;1.00;;;;;;5066659;28;20454;-70
2022/11/21 01:19:49;;;;;;;0.10;0.10;;;3.90;21.50;;;;;;5061617;28;20433;-70
2022/11/21 01:22:15;;;;;;;0.50;0.50;;;3.90;29.80;;;;;;5061792;28;21180;-70
2022/11/21 01:24:42;;;;;;;0.93;0.22;;;4.00;59.60;;;;;;5061190;28;20439;-70
2022/11/21 01:27:09;;;;;;;0.40;0.40;;;4.00;93.40;;;;;;5045406;28;21182;-70
2022/11/21 01:29:36;;;;;;;0.28;0.28;;;4.00;99.70;;;;;;5059061;28;20427;-70
2022/11/21 01:32:02;;;;;;;0.20;0.20;;;4.00;99.90;;;;;;5068644;28;20431;-70
2022/11/21 01:34:29;;;;;;;0.40;0.20;;;4.00;99.90;;;;;;5052864;28;20427;-70
2022/11/21 01:37:00;;;;;;;0.10;0.10;;;4.00;99.90;;;;;;5064436;28;20443;-70
2022/11/21 01:39:26;;;;;;;0.10;0.10;;;3.90;98.10;;;;;;5070801;28;20423;-70
2022/11/21 01:41:56;;;;;;;0.30;0.10;;;3.90;95.90;;;;;;5059660;28;20508;-70
2022/11/21 01:44:25;;;;;;;0.17;0.17;;;3.90;97.30;;;;;;5057820;28;20427;-69
2022/11/21 01:46:53;;;;;;;0.33;0.23;;;3.90;99.20;;;;;;5064384;28;20530;-69
2022/11/21 01:49:27;;;;;;;0.50;0.30;;;3.90;99.90;;;;;;5063664;28;20763;-70
2022/11/21 01:52:00;;;;;;;0.10;0.10;;;4.00;99.90;;;;;;5061461;28;20433;-69
2022/11/21 01:54:46;;;;;;;0.30;0.20;;;4.00;99.90;;;;;;5058200;28;21031;-69
2022/11/21 01:57:31;;;;;;;0.10;0.10;;;4.10;99.90;;;;;;5056743;28;20442;-69
2022/11/21 02:00:11;;;;;;;0.10;0.10;;;4.10;99.90;;;;;;5067229;28;20533;-70
2022/11/21 02:03:02;;;;;;;0.00;0.00;;;4.20;99.90;;;;;;5053479;28;20444;-71
2022/11/21 02:05:31;;;;;;;0.10;0.10;;;4.30;99.90;;;;;;5060957;28;20469;-71
2022/11/21 02:08:04;;;;;;;0.30;0.30;;;4.30;99.90;;;;;;5058764;28;20916;-71
2022/11/21 02:10:35;;;;;;;0.10;0.10;;;4.20;99.90;;;;;;5059685;28;20944;-71
2022/11/21 02:13:02;;;;;;;0.28;0.28;;;4.20;99.90;;;;;;5061616;28;20453;-70
2022/11/21 02:15:29;;;;;;;6.60;0.30;;;4.10;99.90;;;;;;5062675;28;20429;-70
2022/11/21 02:17:55;;;;;;;0.70;0.22;;;4.10;99.90;;;;;;5056961;28;20429;-70
2022/11/21 02:20:25;;;;;;;0.20;0.20;;;4.00;1.00;;;;;;5055663;28;20528;-71
2022/11/21 02:23:16;;;;;;;0.40;0.40;;;4.00;1.00;;;;;;5055905;28;20432;-71
2022/11/21 02:25:43;;;;;;;0.40;0.40;;;3.90;1.00;;;;;;5065725;28;20940;-71
2022/11/21 02:28:15;;;;;;;0.32;0.32;;;3.90;1.00;;;;;;5065440;28;20427;-71
2022/11/21 02:30:42;;;;;;;0.60;0.60;;;3.90;1.00;;;;;;5067694;28;20423;-71
2022/11/21 02:33:10;;;;;;;0.20;0.20;;;3.90;1.00;;;;;;5063540;28;20551;-72
2022/11/21 02:35:38;;;;;;;0.35;0.35;;;3.90;1.00;;;;;;5063794;28;20439;-71
2022/11/21 02:38:22;;;;;;;0.70;0.70;;;3.90;1.00;;;;;;5057101;28;20438;-71
2022/11/21 02:41:13;;;;;;;0.35;0.35;;;3.80;1.00;;;;;;5059585;28;20419;-71
2022/11/21 02:44:05;;;;;;;0.35;0.25;;;3.80;1.00;;;;;;5059126;28;20910;-71
2022/11/21 02:46:34;;;;;;;0.10;0.10;;;3.70;1.00;;;;;;5058075;28;20427;-71
2022/11/21 02:49:07;;;;;;;0.30;0.30;;;3.70;1.00;;;;;;5066690;28;20465;-71
2022/11/21 02:51:33;;;;;;;1.75;0.43;;;3.60;1.00;;;;;;5054856;28;20438;-71
2022/11/21 02:54:00;;;;;;;0.38;0.30;;;3.70;1.00;;;;;;5063837;28;20437;-71
2022/11/21 02:56:28;;;;;;;0.50;0.40;;;3.70;1.00;;;;;;5066199;28;20489;-71
2022/11/21 02:58:55;;;;;;;0.52;0.52;;;3.70;1.00;;;;;;5072273;28;20431;-71
2022/11/21 03:01:21;;;;;;;2.30;0.30;;;3.70;1.00;;;;;;5059462;28;20949;-71
2022/11/21 03:03:48;;;;;;;0.60;0.60;;;3.70;1.00;;;;;;5064929;28;20431;-71
2022/11/21 03:06:15;;;;;;;7.68;0.45;;;3.60;1.00;;;;;;5067619;28;20423;-71
2022/11/21 03:08:41;;;;;;;0.20;0.20;;;3.60;1.00;;;;;;5086312;28;20427;-71
2022/11/21 03:11:08;;;;;;;0.60;0.47;;;3.70;1.00;;;;;;5068694;28;20435;-71
2022/11/21 03:13:35;;;;;;;0.25;0.25;;;3.70;1.00;;;;;;5071794;28;20431;-71
2022/11/21 03:16:02;;;;;;;0.80;0.68;;;3.80;1.00;;;;;;5070229;28;20659;-71
2022/11/21 03:18:28;;;;;;;0.20;0.20;;;4.00;1.00;;;;;;5072740;28;20432;-71
2022/11/21 03:20:56;;;;;;;0.20;0.20;;;4.10;1.00;;;;;;5081957;28;20517;-71
2022/11/21 03:23:23;;;;;;;0.40;0.40;;;4.10;1.00;;;;;;5062416;28;20436;-71
2022/11/21 03:25:50;;;;;;;0.30;0.30;;;4.00;1.00;;;;;;5072411;28;20429;-71
2022/11/21 03:28:16;;;;;;;0.30;0.30;;;3.90;1.00;;;;;;5072772;28;20477;-71
2022/11/21 03:30:43;;;;;;;2.90;0.40;;;3.90;1.00;;;;;;5069700;28;20499;-71
2022/11/21 03:33:10;;;;;;;0.93;0.25;;;3.90;1.00;;;;;;5065428;28;20921;-71
2022/11/21 03:35:36;;;;;;;0.20;0.20;;;3.90;1.00;;;;;;5065588;28;20435;-71
2022/11/21 03:38:03;;;;;;;0.13;0.13;;;3.80;1.00;;;;;;5064903;28;20517;-71
2022/11/21 03:40:30;;;;;;;0.10;0.10;;;3.80;1.00;;;;;;5067970;28;20514;-71
2022/11/21 03:43:03;;;;;;;0.60;0.30;;;3.80;1.00;;;;;;5065627;28;20431;-71
2022/11/21 03:45:30;;;;;;;0.13;0.13;;;3.70;1.00;;;;;;5073858;28;20939;-71
2022/11/21 03:47:57;;;;;;;0.50;0.40;;;3.60;1.00;;;;;;5065872;28;20538;-71
2022/11/21 03:50:24;;;;;;;0.10;0.10;;;3.50;1.00;;;;;;5071570;28;20449;-70
2022/11/21 03:52:50;;;;;;;7.55;0.20;;;3.50;1.00;;;;;;5072115;28;20427;-71
2022/11/21 03:55:17;;;;;;;0.10;0.10;;;3.40;1.00;;;;;;5064010;28;20433;-70
2022/11/21 03:57:44;;;;;;;0.10;0.10;;;3.60;1.00;;;;;;5067351;28;20799;-70
2022/11/21 04:00:11;;;;;;;0.10;0.10;;;3.60;1.00;;;;;;5065158;28;20504;-70
2022/11/21 04:02:38;;;;;;;0.10;0.10;;;3.70;1.00;;;;;;5064868;28;20421;-70
2022/11/21 04:05:05;;;;;;;0.50;0.50;;;3.70;1.00;;;;;;5067449;28;20430;-70
2022/11/21 04:07:31;;;;;;;0.40;0.40;;;3.80;1.00;;;;;;5065197;28;20434;-70
2022/11/21 04:09:59;;;;;;;0.80;0.13;;;3.80;1.00;;;;;;5067676;28;20435;-70
2022/11/21 04:12:25;;;;;;;0.30;0.30;;;3.90;1.00;;;;;;5059954;28;20514;-70
2022/11/21 04:14:52;;;;;;;0.20;0.20;;;3.90;1.00;;;;;;5062375;28;20436;-70
2022/11/21 04:17:19;;;;;;;1.10;0.30;;;3.90;1.00;;;;;;5068149;28;20428;-70
2022/11/21 04:19:48;;;;;;;0.10;0.10;;;3.70;1.00;;;;;;5065785;28;20440;-70
2022/11/21 04:22:15;;;;;;;0.10;0.10;;;3.60;1.00;;;;;;5061438;28;20433;-70
2022/11/21 04:24:42;;;;;;;0.22;0.22;;;3.40;1.00;;;;;;5066592;28;20496;-70
2022/11/21 04:27:09;;;;;;;0.20;0.20;;;3.30;1.00;;;;;;5061588;28;20449;-70
2022/11/21 04:29:35;;;;;;;1.20;0.40;;;3.20;1.00;;;;;;5066546;28;20459;-70
2022/11/21 04:32:02;;;;;;;0.20;0.20;;;3.10;1.00;;;;;;5063944;28;20504;-70
2022/11/21 04:34:29;;;;;;;0.20;0.20;;;3.00;1.00;;;;;;5068574;28;21018;-70
2022/11/21 04:36:56;;;;;;;0.40;0.40;;;3.10;1.00;;;;;;5072732;28;20840;-70
2022/11/21 04:39:23;;;;;;;0.10;0.10;;;3.00;1.00;;;;;;5066262;28;20455;-70
2022/11/21 04:41:53;;;;;;;0.43;0.43;;;2.80;1.00;;;;;;5067550;28;20423;-70
2022/11/21 04:44:19;;;;;;;2.13;0.57;;;2.60;1.00;;;;;;5068935;28;20426;-70
2022/11/21 04:46:46;;;;;;;0.30;0.30;;;2.50;1.00;;;;;;5061093;28;20439;-70
2022/11/21 04:49:13;;;;;;;0.20;0.20;;;2.50;1.00;;;;;;5063239;28;20427;-70
2022/11/21 04:51:40;;;;;;;0.20;0.20;;;2.50;1.00;;;;;;5062480;28;20427;-70
2022/11/21 04:54:06;;;;;;;1.20;0.30;;;2.40;1.00;;;;;;5068790;28;20424;-70
2022/11/21 04:56:33;;;;;;;0.10;0.10;;;2.40;1.00;;;;;;5061892;28;20430;-70
2022/11/21 04:59:00;;;;;;;0.20;0.20;;;2.40;1.00;;;;;;5057575;28;20423;-70
2022/11/21 05:01:27;;;;;;;0.10;0.10;;;2.30;1.00;;;;;;5060958;28;20429;-70
2022/11/21 05:03:53;;;;;;;0.25;0.25;;;2.30;1.00;;;;;;5065694;28;20431;-70
2022/11/21 05:06:20;;;;;;;0.20;0.20;;;2.20;1.00;;;;;;5063698;28;20443;-70
2022/11/21 05:08:47;;;;;;;0.13;0.13;;;2.40;1.00;;;;;;5064536;28;20494;-70
2022/11/21 05:14:05;;;;;;;0.20;0.20;;;2.30;1.00;;;;;;5061888;28;20519;-70
2022/11/21 05:16:32;;;;;;;0.40;0.40;;;2.20;1.00;;;;;;5064313;28;20510;-70
2022/11/21 05:18:59;;;;;;;0.13;0.13;;;2.30;27.30;;;;;;5054427;28;20469;-70
2022/11/21 05:21:26;;;;;;;0.17;0.17;;;2.50;96.30;;;;;;5064402;28;20427;-70
2022/11/21 05:23:53;;;;;;;0.25;0.25;;;2.60;99.90;;;;;;5067919;28;20424;-70
2022/11/21 05:26:20;;;;;;;0.20;0.20;;;2.80;99.90;;;;;;5061089;28;20432;-70
2022/11/21 05:28:47;;;;;;;0.25;0.25;;;2.90;99.90;;;;;;5054215;28;20803;-70
2022/11/21 05:31:18;;;;;;;0.30;0.30;;;3.00;99.90;;;;;;5057748;28;20429;-70
2022/11/21 05:33:44;;;;;;;4.30;0.20;;;3.10;99.90;;;;;;5065205;28;20433;-70
2022/11/21 05:36:11;;;;;;;0.10;0.10;;;3.10;99.90;;;;;;5058828;28;20424;-70
2022/11/21 05:38:38;;;;;;;0.40;0.40;;;3.20;99.90;;;;;;5060914;28;20444;-70
2022/11/21 05:41:08;;;;;;;0.20;0.20;;;3.20;99.90;;;;;;5055093;28;20505;-69
2022/11/21 05:43:47;;;;;;;0.30;0.30;;;3.20;99.90;;;;;;5065544;28;20444;-70
2022/11/21 05:46:19;;;;;;;0.20;0.20;;;3.20;99.90;;;;;;5061334;28;20432;-70
2022/11/21 05:48:47;;;;;;;0.30;0.30;;;3.20;99.90;;;;;;5056224;28;20955;-70
2022/11/21 05:51:15;;;;;;;0.30;0.30;;;3.20;99.90;;;;;;5062956;28;20481;-70
2022/11/21 05:53:43;;;;;;;1.23;0.57;;;3.20;99.90;;;;;;5061432;28;20956;-70
2022/11/21 05:56:12;;;;;;;0.70;0.40;;;3.20;99.90;;;;;;5065550;28;20510;-70
2022/11/21 05:58:39;;;;;;;0.40;0.20;;;3.20;99.90;;;;;;5053162;28;21031;-70
2022/11/21 06:01:07;;;;;;;0.20;0.20;;;3.20;99.90;;;;;;5052760;28;20423;-70
2022/11/21 06:03:37;;;;;;;0.28;0.28;;;3.30;99.90;;;;;;5059373;28;20458;-70
2022/11/21 06:06:15;;;;;;;0.20;0.20;;;3.30;99.90;;;;;;5063650;28;20429;-70
2022/11/21 06:08:47;;;;;;;0.30;0.30;;;3.30;99.90;;;;;;5061830;28;20435;-70
2022/11/21 06:11:16;;;;;;;0.20;0.20;;;3.30;99.90;;;;;;5070504;28;20814;-70
2022/11/21 06:13:43;;;;;;;0.20;0.20;;;3.30;99.90;;;;;;5060359;28;20476;-70
2022/11/21 06:16:18;;;;;;;0.20;0.20;;;3.30;99.90;;;;;;5064679;28;20511;-70
2022/11/21 06:18:48;;;;;;;0.40;0.40;;;3.20;99.90;;;;;;5052836;28;20436;-70
2022/11/21 06:21:22;;;;;;;0.28;0.28;;;3.10;99.90;;;;;;5057290;28;20450;-70
2022/11/21 06:23:56;;;;;;;0.20;0.20;;;3.10;99.90;;;;;;5055417;28;20431;-69
2022/11/21 06:26:25;;;;;;;0.20;0.20;;;3.10;99.90;;;;;;5067417;28;20430;-70
2022/11/21 06:28:51;;;;;;;0.10;0.10;;;3.10;99.90;;;;;;5059862;28;20425;-69
2022/11/21 06:31:24;;;;;;;0.10;0.10;;;3.10;99.90;;;;;;5065128;28;20446;-69
2022/11/21 06:33:53;;;;;;;0.10;0.10;;;3.20;99.90;;;;;;5065127;28;20441;-69
2022/11/21 06:36:20;;;;;;;0.17;0.17;;;3.30;99.90;;;;;;5067868;28;21321;-69
2022/11/21 06:38:47;;;;;;;0.20;0.20;;;3.40;99.90;;;;;;5057683;28;20415;-69
2022/11/21 06:41:30;;;;;;;0.25;0.25;;;3.50;99.90;;;;;;5062224;28;20620;-69
2022/11/21 06:44:00;;;;;;;0.10;0.10;;;3.50;99.90;;;;;;5060471;28;20477;-69
2022/11/21 06:46:27;;;;;;;0.30;0.27;;;3.60;99.90;;;;;;5068519;28;21252;-69
2022/11/21 06:48:57;;;;;;;0.30;0.30;;;3.60;99.90;;;;;;5064733;28;20443;-69
2022/11/21 06:51:24;;;;;;;2.70;0.30;;;3.70;99.90;;;;;;5079222;28;20427;-69
2022/11/21 06:53:56;;;;;;;0.20;0.20;;;3.70;99.90;;;;;;5067596;28;20427;-69
2022/11/21 06:56:24;;;;;;;0.25;0.25;;;3.80;99.90;;;;;;5057964;28;20428;-69
2022/11/21 06:58:52;;;;;;;0.10;0.10;;;3.90;99.90;;;;;;5050695;28;20945;-70
2022/11/21 07:01:19;;;;;;;0.10;0.10;;;4.00;99.90;;;;;;5062480;28;20417;-70
2022/11/21 07:03:45;;;;;;;0.20;0.15;;;4.10;99.90;;;;;;5058456;28;20909;-70
2022/11/21 07:06:12;;;;;;;0.10;0.10;;;4.20;99.90;;;;;;5060694;28;20439;-70
2022/11/21 07:08:40;;;;;;;0.35;0.13;;;4.30;99.90;;;;;;5059968;28;20467;-69
2022/11/21 07:11:09;;;;;;;1.00;0.40;;;4.30;99.90;;;;;;5064171;28;20522;-70
2022/11/21 07:13:50;;;;;;;0.10;0.10;;;4.40;99.90;;;;;;5057121;28;20546;-69
2022/11/21 07:16:18;;;;;;;0.20;0.20;;;4.50;99.90;;;;;;5061226;28;20533;-69
2022/11/21 07:18:45;;;;;;;0.10;0.10;;;4.50;99.90;;;;;;5051779;28;20436;-69
2022/11/21 07:21:12;;;;;;;0.10;0.10;;;4.60;99.90;;;;;;5051619;28;20481;-69
2022/11/21 07:23:38;;;;;;;0.10;0.10;;;4.70;99.90;;;;;;5059892;28;20455;-69
2022/11/21 07:26:07;;;;;;;0.25;0.25;;;4.70;99.90;;;;;;5059141;28;20431;-70
2022/11/21 07:28:37;;;;;;;0.20;0.20;;;4.80;99.90;;;;;;5057922;28;20524;-69
2022/11/21 07:31:04;;;;;;;0.20;0.20;;;4.80;99.90;;;;;;5062994;28;20444;-70
2022/11/21 07:33:39;;;;;;;0.17;0.17;;;4.90;99.90;;;;;;5062279;28;20917;-69
2022/11/21 07:36:09;;;;;;;0.20;0.20;;;4.90;99.90;;;;;;5053811;28;20946;-70
2022/11/21 07:38:35;;;;;;;0.20;0.20;;;5.00;99.90;;;;;;5062112;28;20429;-72
2022/11/21 07:41:02;;;;;;;1.20;0.30;;;5.00;99.90;;;;;;5069254;28;20427;-71
2022/11/21 07:43:29;;;;;;;0.20;0.20;;;5.10;99.90;;;;;;5064999;28;20975;-71
2022/11/21 07:45:56;;;;;;;0.20;0.20;;;5.10;99.90;;;;;;5061363;28;20423;-71
2022/11/21 07:48:22;;;;;;;0.90;0.20;;;5.10;99.90;;;;;;5070606;28;20941;-71
2022/11/21 07:50:49;;;;;;;0.10;0.10;;;5.20;99.90;;;;;;5063579;28;20431;-73
2022/11/21 07:53:19;;;;;;;0.30;0.30;;;5.30;99.90;;;;;;5059966;28;20432;-72
2022/11/21 07:55:45;;;;;;;0.20;0.20;;;5.30;99.90;;;;;;5059021;28;20425;-72
2022/11/21 07:58:15;;;;;;;0.20;0.20;;;5.40;99.90;;;;;;5064293;28;20481;-72
2022/11/21 08:00:42;;;;;;;0.20;0.20;;;5.50;99.90;;;;;;5061893;28;20476;-72
2022/11/21 08:03:13;;;;;;;0.30;0.30;;;5.50;99.90;;;;;;5061933;28;20432;-72
2022/11/21 08:05:42;;;;;;;0.20;0.20;;;5.60;99.90;;;;;;5057133;28;20421;-72
2022/11/21 08:08:12;;;;;;;0.20;0.20;;;5.60;99.90;;;;;;5057916;28;20471;-72
2022/11/21 08:10:44;;;;;;;2.80;0.20;;;5.60;99.90;;;;;;5064264;28;20427;-72
2022/11/21 08:13:13;;;;;;;0.10;0.10;;;5.60;99.90;;;;;;5060788;28;20493;-72
2022/11/21 08:15:42;;;;;;;0.20;0.20;;;5.60;99.90;;;;;;5068075;28;20435;-72
2022/11/21 08:18:13;;;;;;;0.10;0.10;;;5.70;99.90;;;;;;5070038;28;20921;-72
2022/11/21 08:20:41;;;;;;;0.10;0.10;;;5.80;99.90;;;;;;5069758;28;20436;-72
2022/11/21 08:23:09;;;;;;;0.20;0.20;;;5.90;99.90;;;;;;5069536;28;20451;-72
2022/11/21 08:25:37;;;;;;;0.23;0.23;;;6.00;99.90;;;;;;5068302;28;20423;-72
2022/11/21 08:28:05;;;;;;;0.50;0.40;;;6.10;99.90;;;;;;5069554;28;20825;-72
2022/11/21 08:30:33;;;;;;;0.30;0.30;;;6.20;99.90;;;;;;5060162;28;20442;-72
2022/11/21 08:33:00;;;;;;;0.52;0.30;;;6.30;99.90;;;;;;5074660;28;20502;-72
2022/11/21 08:35:28;;;;;;;0.30;0.30;;;6.50;99.90;;;;;;5066672;28;20511;-72
2022/11/21 08:37:58;;;;;;;0.10;0.10;;;6.60;99.90;;;;;;5064842;28;20428;-72
2022/11/21 08:40:29;;;;;;;3.30;0.40;;;6.80;99.90;;;;;;5062761;28;20423;-72
2022/11/21 08:43:07;;;;;;;0.20;0.20;;;6.90;99.90;;;;;;5068067;28;20917;-72
2022/11/21 08:45:35;;;;;;;2.10;0.40;;;7.00;99.90;;;;;;5066386;28;20528;-72
2022/11/21 08:48:03;;;;;;;0.55;0.55;;;7.00;99.90;;;;;;5064515;28;20437;-72
2022/11/21 08:50:30;;;;;;;0.20;0.20;;;7.00;99.90;;;;;;5066628;28;20436;-72
2022/11/21 08:53:02;;;;;;;0.30;0.30;;;7.00;99.90;;;;;;5085686;28;20426;-72
2022/11/21 08:55:29;;;;;;;0.50;0.40;;;7.10;99.90;;;;;;5060033;28;20443;-72
2022/11/21 08:57:57;;;;;;;0.30;0.30;;;7.30;99.90;;;;;;5056012;28;20472;-72
2022/11/21 09:00:24;;;;;;;0.20;0.20;;;7.30;99.90;;;;;;5066937;28;20524;-72
2022/11/21 09:02:50;;;;;;;0.40;0.40;;;7.40;99.90;;;;;;5063072;28;20462;-72
2022/11/21 09:05:17;;;;;;;1.00;0.40;;;7.50;99.90;;;;;;5064368;28;20430;-72
2022/11/21 09:07:44;;;;;;;0.28;0.28;;;7.50;99.90;;;;;;5064555;28;20425;-72
2022/11/21 09:10:11;;;;;;;0.40;0.40;;;7.60;99.90;;;;;;5069049;28;20427;-72
2022/11/21 09:12:37;;;;;;;4.10;0.35;;;7.90;99.90;;;;;;5062698;28;20433;-72
2022/11/21 09:18:02;;;;;;;0.30;0.30;;;8.50;99.90;;;;;;5059662;28;20440;-72
2022/11/21 09:20:36;;;;;;;0.22;0.22;;;8.50;99.90;;;;;;5066041;28;20435;-72
2022/11/21 09:23:08;;;;;;;0.20;0.20;;;8.80;99.90;;;;;;5068347;28;20455;-72
2022/11/21 09:25:35;;;;;;;0.25;0.25;;;9.10;99.90;;;;;;5060405;28;20423;-72
2022/11/21 09:28:03;;;;;;;0.40;0.40;;;9.30;99.90;;;;;;5067107;28;20474;-72
2022/11/21 09:30:30;;;;;;;0.20;0.20;;;9.60;99.90;;;;;;5066720;28;20458;-73
2022/11/21 09:33:01;;;;;;;0.40;0.30;;;9.60;99.90;;;;;;5060107;28;20514;-72
2022/11/21 09:35:31;;;;;;;0.20;0.20;;;9.50;99.90;;;;;;5065272;28;20439;-72
2022/11/21 09:37:59;;;;;;;0.20;0.20;;;9.40;99.90;;;;;;5065071;28;20435;-73
2022/11/21 09:40:29;;;;;;;0.40;0.40;;;9.00;99.90;;;;;;5068880;28;20603;-72
2022/11/21 09:42:58;;;;;;;0.30;0.30;;;8.60;99.90;;;;;;5069945;28;20476;-72
2022/11/21 09:45:43;;;;;;;0.17;0.17;;;8.30;99.90;;;;;;5061667;28;20555;-72
2022/11/21 09:48:21;;;;;;;0.82;0.43;;;8.10;99.90;;;;;;5063057;28;20438;-71
2022/11/21 09:50:56;;;;;;;0.20;0.20;;;7.90;99.90;;;;;;5060896;28;20436;-72
2022/11/21 09:53:50;;;;;;;0.90;0.90;;;7.80;99.90;;;;;;5060277;28;20552;-72
2022/11/21 09:56:22;;;;;;;0.30;0.30;;;7.80;99.90;;;;;;5066044;28;20443;-72
2022/11/21 09:59:16;;;;;;;0.40;0.40;;;7.80;99.90;;;;;;5061018;28;20438;-73
2022/11/21 10:01:43;;;;;;;0.50;0.50;;;7.90;99.90;;;;;;5062481;28;20433;-73
2022/11/21 10:04:13;;;;;;;0.50;0.40;;;8.20;99.90;;;;;;5063192;28;20786;-72
2022/11/21 10:07:04;;;;;;;0.20;0.20;;;8.70;99.90;;;;;;5059424;28;20430;-72
2022/11/21 10:10:02;;;;;;;0.30;0.30;;;9.80;99.90;;;;;;5060118;28;20960;-73
2022/11/21 10:12:39;;;;;;;0.40;0.40;;;10.20;99.90;;;;;;5066273;28;20516;-72
2022/11/21 10:15:27;;;;;;;0.30;0.30;;;9.90;99.90;;;;;;5062840;28;20953;-72
2022/11/21 10:18:26;;;;;;;0.10;0.10;;;9.50;99.90;;;;;;5061563;28;20471;-72
2022/11/21 10:21:24;;;;;;;3.17;0.43;;;9.10;99.90;;;;;;5059738;28;20451;-72
2022/11/21 10:24:05;;;;;;;1.70;0.45;;;8.70;99.90;;;;;;5061279;28;20432;-71
2022/11/21 10:26:51;;;;;;;2.00;0.50;;;8.40;99.90;;;;;;5064858;28;20427;-71
2022/11/21 10:29:20;;;;;;;0.30;0.30;;;8.40;99.90;;;;;;5052602;28;20858;-71
2022/11/21 10:31:48;;;;;;;0.60;0.40;;;8.50;99.90;;;;;;5062579;28;20423;-70
2022/11/21 10:34:20;;;;;;;0.30;0.30;;;8.50;99.90;;;;;;5059500;28;20435;-70
2022/11/21 10:36:51;;;;;;;0.60;0.43;;;8.60;99.90;;;;;;5057965;28;20998;-71
2022/11/21 10:39:45;;;;;;;0.20;0.20;;;8.60;99.90;;;;;;5058892;28;20439;-70
2022/11/21 10:42:22;;;;;;;0.20;0.20;;;8.70;99.90;;;;;;5056643;28;20431;-70
2022/11/21 10:47:37;;;;;;;0.10;0.10;;;8.70;99.90;;;;;;5053571;28;20436;-71
2022/11/21 10:50:09;;;;;;;0.40;0.40;;;8.90;99.90;;;;;;5056515;28;20447;-70
2022/11/21 10:52:57;;;;;;;0.20;0.20;;;9.10;99.90;;;;;;5065354;28;20554;-71
2022/11/21 10:55:24;;;;;;;0.40;0.20;;;9.20;99.90;;;;;;5063635;28;20480;-71
2022/11/21 10:57:53;;;;;;;0.30;0.30;;;9.30;99.90;;;;;;5060552;28;20435;-70
2022/11/21 11:00:28;;;;;;;0.38;0.38;;;9.50;99.90;;;;;;5060455;28;20477;-72
2022/11/21 11:03:05;;;;;;;0.20;0.20;;;9.80;99.90;;;;;;5062392;28;20427;-71
2022/11/21 11:05:36;;;;;;;0.20;0.20;;;10.50;99.90;;;;;;5055497;28;20478;-71
2022/11/21 11:08:14;;;;;;;1.60;0.40;;;11.00;99.90;;;;;;5060294;28;20511;-71
2022/11/21 11:10:59;;;;;;;0.30;0.30;;;11.40;99.90;;;;;;5056392;28;20776;-71
2022/11/21 11:16:18;;;;;;;0.30;0.30;;;12.60;99.90;;;;;;5066480;28;20427;-67
2022/11/21 11:19:12;;;;;;;0.20;0.20;;;13.10;99.90;;;;;;5064440;28;20437;-68
2022/11/21 11:21:45;;;;;;;0.20;0.20;;;12.90;99.90;;;;;;5061840;28;20473;-67
2022/11/21 11:24:12;;;;;;;0.38;0.35;;;13.30;99.90;;;;;;5064958;28;20427;-67
2022/11/21 11:26:48;;;;;;;0.30;0.30;;;13.70;99.90;;;;;;5067781;28;20427;-67
2022/11/21 11:29:23;;;;;;;0.38;0.38;;;14.30;99.90;;;;;;5058354;28;20460;-67
2022/11/21 11:32:00;;;;;;;0.20;0.20;;;13.90;99.90;;;;;;5072374;28;20769;-67
2022/11/21 11:34:45;;;;;;;0.25;0.25;;;13.50;99.90;;;;;;5056652;28;20445;-66
2022/11/21 11:37:35;;;;;;;0.30;0.20;;;13.20;99.90;;;;;;5060724;28;20440;-64
2022/11/21 11:40:25;;;;;;;0.20;0.20;;;12.90;99.90;;;;;;5061248;28;22274;-66
2022/11/21 11:49:20;;;;;;;0.50;0.50;;;11.50;99.90;;;;;;5053086;28;20437;-72
2022/11/21 11:51:55;;;;;;;0.40;0.40;;;11.10;99.90;;;;;;5059918;28;20772;-71
2022/11/21 11:54:46;;;;;;;1.20;0.20;;;10.70;99.90;;;;;;5062244;28;20427;-71
2022/11/21 11:57:13;;;;;;;0.45;0.45;;;10.70;99.90;;;;;;5060047;28;20457;-71
2022/11/21 11:59:46;;;;;;;0.10;0.10;;;10.40;99.90;;;;;;5064269;28;20431;-72
2022/11/21 12:02:15;;;;;;;0.30;0.30;;;10.20;99.90;;;;;;5059922;28;20423;-71
2022/11/21 12:05:03;;;;;;;0.28;0.28;;;10.10;99.90;;;;;;5067191;28;20419;-71
2022/11/21 12:07:49;;;;;;;0.30;0.30;;;10.10;99.90;;;;;;5064821;28;20595;-72
2022/11/21 12:13:35;;;;;;;0.25;0.25;;;9.90;99.90;;;;;;5064188;28;20835;-72
2022/11/21 12:16:05;;;;;;;1.10;1.10;;;9.80;99.90;;;;;;5059630;28;20437;-72
2022/11/21 12:19:01;;;;;;;0.20;0.20;;;9.70;99.90;;;;;;5066306;28;20439;-72
2022/11/21 12:21:28;;;;;;;3.70;0.40;;;9.50;99.90;;;;;;5063215;28;20415;-72
2022/11/21 12:23:57;;;;;;;0.50;0.50;;;9.70;99.90;;;;;;5066030;28;20485;-72
2022/11/21 12:26:35;;;;;;;0.20;0.20;;;10.20;99.90;;;;;;5059414;28;20834;-72
2022/11/21 12:29:23;;;;;;;7.50;0.50;;;10.60;99.90;;;;;;5061443;28;20479;-72
2022/11/21 12:31:58;;;;;;;0.20;0.20;;;11.00;99.90;;;;;;5060094;28;20431;-73
2022/11/21 12:34:37;;;;;;;1.90;0.40;;;11.40;99.90;;;;;;5058912;28;20430;-71
2022/11/21 12:37:22;;;;;;;0.30;0.30;;;11.80;99.90;;;;;;5051969;28;20449;-73
2022/11/21 12:40:30;;;;;;;0.20;0.20;;;11.70;99.90;;;;;;5053449;28;20531;-72
2022/11/21 12:43:19;;;;;;;0.10;0.10;;;11.60;99.90;;;;;;5062566;28;20425;-72
2022/11/21 12:46:16;;;;;;;12.48;0.50;;;11.40;99.90;;;;;;5058916;28;20525;-72
2022/11/21 12:55:12;;;;;;;0.55;0.35;;;10.60;99.90;;;;;;5063136;28;20423;-72
2022/11/21 12:58:07;;;;;;;0.33;0.33;;;11.10;99.90;;;;;;5060992;28;20436;-72
2022/11/21 13:00:55;;;;;;;0.20;0.20;;;12.00;99.90;;;;;;5067661;28;20423;-73
2022/11/21 13:03:43;;;;;;;0.60;0.50;;;12.40;99.90;;;;;;5063181;28;20898;-72
2022/11/21 13:06:27;;;;;;;0.30;0.30;;;12.40;99.90;;;;;;5058686;28;20427;-72
2022/11/21 13:08:55;;;;;;;0.20;0.20;;;11.90;99.90;;;;;;5062486;28;20878;-72
2022/11/21 13:11:57;;;;;;;0.20;0.20;;;11.70;99.90;;;;;;5055665;28;20428;-72
2022/11/21 13:14:35;;;;;;;0.30;0.30;;;11.30;99.90;;;;;;5062383;28;20433;-72
2022/11/21 13:17:19;;;;;;;0.30;0.30;;;10.50;99.90;;;;;;5064624;28;20437;-72
2022/11/21 13:20:00;;;;;;;0.35;0.35;;;9.90;99.90;;;;;;5062779;28;20458;-72
2022/11/21 13:22:38;;;;;;;0.50;0.50;;;9.30;99.90;;;;;;5059859;28;20561;-72
2022/11/21 13:25:31;;;;;;;0.30;0.30;;;8.90;99.90;;;;;;5062892;28;20557;-72
2022/11/21 13:28:10;;;;;;;1.15;0.32;;;8.60;99.90;;;;;;5056501;28;20518;-73
2022/11/21 13:30:56;;;;;;;0.20;0.20;;;8.40;99.90;;;;;;5060609;28;20467;-73
2022/11/21 13:33:38;;;;;;;0.90;0.90;;;8.40;99.90;;;;;;5060242;28;20889;-72
2022/11/21 13:36:11;;;;;;;0.20;0.20;;;8.30;99.90;;;;;;5060729;28;20441;-73
2022/11/21 13:38:53;;;;;;;0.20;0.20;;;8.30;99.90;;;;;;5069380;28;20427;-73
2022/11/21 13:44:30;;;;;;;0.30;0.30;;;8.30;99.90;;;;;;5067878;28;20555;-73
2022/11/21 13:47:08;;;;;;;0.25;0.25;;;8.20;99.90;;;;;;5067579;28;20550;-73
2022/11/21 13:49:38;;;;;;;0.30;0.30;;;8.20;99.90;;;;;;5069651;28;20427;-73
2022/11/21 13:52:29;;;;;;;0.50;0.35;;;8.20;99.90;;;;;;5060767;28;20428;-73